createdAt,value
2022-12-31T00:00:08.736Z,7.40
2022-12-31T00:02:36.158Z,7.03
2022-12-31T00:05:03.376Z,6.60
2022-12-31T00:07:29.813Z,5.97
2022-12-31T00:09:56.269Z,5.78
2022-12-31T00:12:23.548Z,6.72
2022-12-31T00:14:49.999Z,6.90
2022-12-31T00:17:16.501Z,6.30
2022-12-31T00:19:42.993Z,5.90
2022-12-31T00:22:09.977Z,4.63
2022-12-31T00:24:36.499Z,5.05
2022-12-31T00:27:03.030Z,4.45
2022-12-31T00:29:29.566Z,4.40
2022-12-31T00:31:55.992Z,4.03
2022-12-31T00:34:22.606Z,3.67
2022-12-31T00:36:49.158Z,4.55
2022-12-31T00:39:15.714Z,3.90
2022-12-31T00:41:44.057Z,4.37
2022-12-31T00:44:14.016Z,3.90
2022-12-31T00:49:06.012Z,3.87
2022-12-31T00:51:32.550Z,3.95
2022-12-31T00:53:59.092Z,4.53
2022-12-31T00:56:28.115Z,3.88
2022-12-31T00:58:54.626Z,4.37
2022-12-31T01:01:25.456Z,4.38
2022-12-31T01:03:55.174Z,4.68
2022-12-31T01:06:22.466Z,5.28
2022-12-31T01:08:49.974Z,5.30
2022-12-31T01:11:20.467Z,6.70
2022-12-31T01:13:52.526Z,5.90
2022-12-31T01:16:22.128Z,5.47
2022-12-31T01:18:49.425Z,5.43
2022-12-31T01:21:16.053Z,6.45
2022-12-31T01:23:42.753Z,6.33
2022-12-31T01:26:12.279Z,5.60
2022-12-31T01:28:38.834Z,6.95
2022-12-31T01:31:12.541Z,6.07
2022-12-31T01:33:39.715Z,6.10
2022-12-31T01:36:10.156Z,5.40
2022-12-31T01:38:37.136Z,6.22
2022-12-31T01:41:04.242Z,5.82
2022-12-31T01:43:49.086Z,6.15
2022-12-31T01:46:30.767Z,6.10
2022-12-31T01:49:02.059Z,5.37
2022-12-31T01:51:32.947Z,5.30
2022-12-31T01:54:01.383Z,6.03
2022-12-31T01:56:27.933Z,5.57
2022-12-31T01:58:56.756Z,5.85
2022-12-31T02:01:31.203Z,6.30
2022-12-31T02:03:59.126Z,5.45
2022-12-31T02:06:34.075Z,5.90
2022-12-31T02:09:00.809Z,5.10
2022-12-31T02:11:36.368Z,5.55
2022-12-31T02:14:09.638Z,5.33
2022-12-31T02:16:40.074Z,4.95
2022-12-31T02:19:57.126Z,5.05
2022-12-31T02:22:54.567Z,5.05
2022-12-31T02:25:55.011Z,4.03
2022-12-31T02:28:36.712Z,3.93
2022-12-31T02:31:16.834Z,3.78
2022-12-31T02:33:56.464Z,3.83
2022-12-31T02:36:28.094Z,4.20
2022-12-31T02:38:55.993Z,3.53
2022-12-31T02:41:41.080Z,3.83
2022-12-31T02:44:32.444Z,3.80
2022-12-31T02:47:07.914Z,4.05
2022-12-31T02:49:52.887Z,3.30
2022-12-31T02:52:52.685Z,3.78
2022-12-31T02:55:41.292Z,3.80
2022-12-31T02:58:13.631Z,3.85
2022-12-31T03:01:16.235Z,3.50
2022-12-31T03:03:43.071Z,3.78
2022-12-31T03:06:11.492Z,3.83
2022-12-31T03:09:01.980Z,3.73
2022-12-31T03:11:46.695Z,3.75
2022-12-31T03:14:13.248Z,4.00
2022-12-31T03:16:39.760Z,4.10
2022-12-31T03:19:24.785Z,3.90
2022-12-31T03:22:09.688Z,4.30
2022-12-31T03:24:54.347Z,4.78
2022-12-31T03:27:20.811Z,3.75
2022-12-31T03:29:47.253Z,3.65
2022-12-31T03:32:13.664Z,4.45
2022-12-31T03:34:40.153Z,4.70
2022-12-31T03:37:06.592Z,4.32
2022-12-31T03:39:33.072Z,4.10
2022-12-31T03:41:59.519Z,4.53
2022-12-31T03:44:26.067Z,4.47
2022-12-31T03:46:52.494Z,5.03
2022-12-31T03:49:19.005Z,5.40
2022-12-31T03:51:45.434Z,5.78
2022-12-31T03:54:12.033Z,5.72
2022-12-31T03:56:38.488Z,4.68
2022-12-31T03:59:04.947Z,5.00
2022-12-31T04:01:31.539Z,5.18
2022-12-31T04:03:58.105Z,6.13
2022-12-31T04:06:24.574Z,6.93
2022-12-31T04:08:51.022Z,5.78
2022-12-31T04:11:20.771Z,5.90
2022-12-31T04:13:47.561Z,5.07
2022-12-31T04:16:14.037Z,4.75
2022-12-31T04:18:40.737Z,5.50
2022-12-31T04:21:07.308Z,4.88
2022-12-31T04:23:33.734Z,4.63
2022-12-31T04:26:00.198Z,4.68
2022-12-31T04:28:26.715Z,4.60
2022-12-31T04:30:53.173Z,4.72
2022-12-31T04:33:19.594Z,5.78
2022-12-31T04:35:46.096Z,6.07
2022-12-31T04:38:12.552Z,6.30
2022-12-31T04:40:58.949Z,6.30
2022-12-31T04:43:25.392Z,6.80
2022-12-31T04:45:51.906Z,6.78
2022-12-31T04:48:18.430Z,7.10
2022-12-31T04:50:46.708Z,6.38
2022-12-31T04:53:13.278Z,6.22
2022-12-31T04:55:41.643Z,6.43
2022-12-31T04:58:08.096Z,6.25
2022-12-31T05:00:34.566Z,6.87
2022-12-31T05:03:01.029Z,7.15
2022-12-31T05:05:27.495Z,7.07
2022-12-31T05:07:53.987Z,7.43
2022-12-31T05:10:20.413Z,6.95
2022-12-31T05:12:46.846Z,6.70
2022-12-31T05:15:13.311Z,7.10
2022-12-31T05:17:39.816Z,6.50
2022-12-31T05:20:06.720Z,6.60
2022-12-31T05:22:33.219Z,6.80
2022-12-31T05:25:00.729Z,5.20
2022-12-31T05:27:28.344Z,6.70
2022-12-31T05:29:54.758Z,4.63
2022-12-31T05:32:21.202Z,6.03
2022-12-31T05:34:47.675Z,5.55
2022-12-31T05:37:14.158Z,5.60
2022-12-31T05:39:40.600Z,5.65
2022-12-31T05:42:07.075Z,6.07
2022-12-31T05:44:33.547Z,5.80
2022-12-31T05:47:00.020Z,5.97
2022-12-31T05:49:26.495Z,5.53
2022-12-31T05:51:52.951Z,4.90
2022-12-31T05:54:19.508Z,6.20
2022-12-31T05:56:46.002Z,6.03
2022-12-31T05:59:12.472Z,5.85
2022-12-31T06:01:38.968Z,6.60
2022-12-31T06:04:06.008Z,5.80
2022-12-31T06:06:32.514Z,6.10
2022-12-31T06:08:59.064Z,7.20
2022-12-31T06:11:25.630Z,6.25
2022-12-31T06:13:52.101Z,7.63
2022-12-31T06:16:18.584Z,7.30
2022-12-31T06:18:50.739Z,7.03
2022-12-31T06:21:18.054Z,6.72
2022-12-31T06:23:44.492Z,7.55
2022-12-31T06:26:11.018Z,7.47
2022-12-31T06:28:37.467Z,7.07
2022-12-31T06:31:06.092Z,6.65
2022-12-31T06:33:33.497Z,7.20
2022-12-31T06:36:02.969Z,6.78
2022-12-31T06:38:32.144Z,6.47
2022-12-31T06:40:58.654Z,7.07
2022-12-31T06:43:25.130Z,7.43
2022-12-31T06:45:51.570Z,8.70
2022-12-31T06:48:18.628Z,8.10
2022-12-31T06:50:45.104Z,8.23
2022-12-31T06:53:11.685Z,8.18
2022-12-31T06:55:38.410Z,7.47
2022-12-31T06:58:05.171Z,7.00
2022-12-31T07:00:31.841Z,6.82
2022-12-31T07:03:29.362Z,6.67
2022-12-31T07:06:09.058Z,5.80
2022-12-31T07:08:41.491Z,6.03
2022-12-31T07:11:31.391Z,5.55
2022-12-31T07:14:18.965Z,5.70
2022-12-31T07:16:54.619Z,5.80
2022-12-31T07:19:27.792Z,4.80
2022-12-31T07:21:58.181Z,4.88
2022-12-31T07:24:25.201Z,4.13
2022-12-31T07:27:16.341Z,4.50
2022-12-31T07:30:03.576Z,4.03
2022-12-31T07:32:48.179Z,3.80
2022-12-31T07:35:35.553Z,3.28
2022-12-31T07:38:14.971Z,3.90
2022-12-31T07:41:09.756Z,4.22
2022-12-31T07:43:51.989Z,3.43
2022-12-31T07:46:28.111Z,4.35
2022-12-31T07:48:54.996Z,4.18
2022-12-31T07:51:21.918Z,4.35
2022-12-31T07:53:48.412Z,5.03
2022-12-31T07:56:14.895Z,5.33
2022-12-31T07:58:50.170Z,6.10
2022-12-31T08:01:28.969Z,4.10
2022-12-31T08:04:05.466Z,4.40
2022-12-31T08:06:59.522Z,4.80
2022-12-31T08:10:07.686Z,3.83
2022-12-31T08:12:40.023Z,3.40
2022-12-31T08:15:18.094Z,3.92
2022-12-31T08:17:44.705Z,3.83
2022-12-31T08:20:17.898Z,4.00
2022-12-31T08:23:03.798Z,3.33
2022-12-31T08:25:52.065Z,3.38
2022-12-31T08:28:50.563Z,3.30
2022-12-31T08:31:24.770Z,2.63
2022-12-31T08:34:25.385Z,3.30
2022-12-31T08:37:45.932Z,3.50
2022-12-31T08:40:31.494Z,3.35
2022-12-31T08:43:21.219Z,3.65
2022-12-31T08:45:51.156Z,2.90
2022-12-31T08:48:29.812Z,3.78
2022-12-31T08:50:57.181Z,3.60
2022-12-31T08:53:23.949Z,3.53
2022-12-31T08:56:00.101Z,3.42
2022-12-31T08:58:45.354Z,3.05
2022-12-31T09:01:15.126Z,3.35
2022-12-31T09:04:17.072Z,3.60
2022-12-31T09:06:51.812Z,3.60
2022-12-31T09:09:47.252Z,3.22
2022-12-31T09:12:20.360Z,3.67
2022-12-31T09:14:58.578Z,4.10
2022-12-31T09:17:43.945Z,4.03
2022-12-31T09:20:26.093Z,3.25
2022-12-31T09:22:54.490Z,3.75
2022-12-31T09:25:23.296Z,3.72
2022-12-31T09:28:16.579Z,3.83
2022-12-31T09:30:56.609Z,4.73
2022-12-31T09:33:32.414Z,3.40
2022-12-31T09:36:03.538Z,3.42
2022-12-31T09:38:54.403Z,3.45
2022-12-31T09:41:23.853Z,3.72
2022-12-31T09:44:28.822Z,3.40
2022-12-31T09:47:08.163Z,3.72
2022-12-31T09:50:13.791Z,4.03
2022-12-31T09:53:13.836Z,4.53
2022-12-31T09:55:49.091Z,4.15
2022-12-31T09:58:27.497Z,3.20
2022-12-31T10:01:07.136Z,3.42
2022-12-31T10:03:39.602Z,3.42
2022-12-31T10:06:28.202Z,3.53
2022-12-31T10:08:54.668Z,3.45
2022-12-31T10:11:39.754Z,3.70
2022-12-31T10:14:24.828Z,2.78
2022-12-31T10:17:18.720Z,3.20
2022-12-31T10:19:54.531Z,3.85
2022-12-31T10:22:48.651Z,3.78
2022-12-31T10:25:42.603Z,3.73
2022-12-31T10:28:37.396Z,3.55
2022-12-31T10:31:17.641Z,3.53
2022-12-31T10:34:22.645Z,3.17
2022-12-31T10:37:03.301Z,3.05
2022-12-31T10:39:44.672Z,4.30
2022-12-31T10:42:45.350Z,3.97
2022-12-31T10:45:27.066Z,3.55
2022-12-31T10:48:21.114Z,4.40
2022-12-31T10:51:15.310Z,3.90
2022-12-31T10:54:11.347Z,3.50
2022-12-31T10:57:11.197Z,3.78
2022-12-31T11:00:01.900Z,3.92
2022-12-31T11:02:31.408Z,4.38
2022-12-31T11:05:22.433Z,3.50
2022-12-31T11:08:07.514Z,2.80
2022-12-31T11:11:04.942Z,3.65
2022-12-31T11:13:34.305Z,3.90
2022-12-31T11:16:32.320Z,4.10
2022-12-31T11:19:23.893Z,3.50
2022-12-31T11:22:06.108Z,4.30
2022-12-31T11:25:01.448Z,3.90
2022-12-31T11:27:49.569Z,4.05
2022-12-31T11:30:29.811Z,3.65
2022-12-31T11:33:10.587Z,4.38
2022-12-31T11:35:39.991Z,3.77
2022-12-31T11:38:31.957Z,4.22
2022-12-31T11:41:38.890Z,3.00
2022-12-31T11:44:33.015Z,3.67
2022-12-31T11:47:21.613Z,3.90
2022-12-31T11:50:20.119Z,4.00
2022-12-31T11:53:19.082Z,3.38
2022-12-31T11:56:09.856Z,3.60
2022-12-31T11:58:36.466Z,3.58
2022-12-31T12:01:12.793Z,4.20
2022-12-31T12:03:43.718Z,4.27
2022-12-31T12:06:16.750Z,3.47
2022-12-31T12:08:44.827Z,3.22
2022-12-31T12:11:30.533Z,3.58
2022-12-31T12:13:57.583Z,3.28
2022-12-31T12:16:26.506Z,4.13
2022-12-31T12:19:14.497Z,3.13
2022-12-31T12:21:47.133Z,3.40
2022-12-31T12:24:16.671Z,3.25
2022-12-31T12:26:47.005Z,4.20
2022-12-31T12:29:17.931Z,3.63
2022-12-31T12:32:02.648Z,3.38
2022-12-31T12:34:35.376Z,4.03
2022-12-31T12:37:02.518Z,4.32
2022-12-31T12:39:34.433Z,4.57
2022-12-31T12:42:12.542Z,5.10
2022-12-31T12:44:40.207Z,4.07
2022-12-31T12:47:12.148Z,4.00
2022-12-31T12:49:44.175Z,4.03
2022-12-31T12:52:49.580Z,4.43
2022-12-31T12:55:33.709Z,3.93
2022-12-31T12:58:33.983Z,3.78
2022-12-31T13:01:05.446Z,3.45
2022-12-31T13:04:32.973Z,3.70
2022-12-31T13:06:46.116Z,4.75
2022-12-31T13:09:12.521Z,4.67
2022-12-31T13:12:07.822Z,4.43
2022-12-31T13:14:53.253Z,4.40
2022-12-31T13:17:48.089Z,4.72
2022-12-31T13:20:35.872Z,4.43
2022-12-31T13:23:44.472Z,4.27
2022-12-31T13:26:20.050Z,4.00
2022-12-31T13:28:50.566Z,3.63
2022-12-31T13:31:22.877Z,4.47
2022-12-31T13:33:58.224Z,3.83
2022-12-31T13:36:28.447Z,3.57
2022-12-31T13:38:59.441Z,3.65
2022-12-31T13:41:39.990Z,3.80
2022-12-31T13:44:27.067Z,4.15
2022-12-31T13:47:03.481Z,4.80
2022-12-31T13:49:40.149Z,4.73
2022-12-31T13:52:30.793Z,4.70
2022-12-31T13:55:09.130Z,3.88
2022-12-31T13:57:47.479Z,4.53
2022-12-31T14:00:22.840Z,4.68
2022-12-31T14:03:17.492Z,4.67
2022-12-31T14:06:10.309Z,4.75
2022-12-31T14:08:37.209Z,4.40
2022-12-31T14:11:23.476Z,4.93
2022-12-31T14:13:49.896Z,5.72
2022-12-31T14:16:28.121Z,4.10
2022-12-31T14:19:34.189Z,4.25
2022-12-31T14:22:08.938Z,3.40
2022-12-31T14:24:44.896Z,4.10
2022-12-31T14:27:21.737Z,4.22
2022-12-31T14:30:02.366Z,5.50
2022-12-31T14:32:47.393Z,4.65
2022-12-31T14:35:28.898Z,3.97
2022-12-31T14:38:19.217Z,3.92
2022-12-31T14:40:56.326Z,4.55
2022-12-31T14:43:34.814Z,3.93
2022-12-31T14:46:38.853Z,4.03
2022-12-31T14:49:30.169Z,4.53
2022-12-31T14:52:27.679Z,4.05
2022-12-31T14:55:00.077Z,3.22
2022-12-31T14:57:54.514Z,5.00
2022-12-31T15:00:21.615Z,4.03
2022-12-31T15:02:51.216Z,4.20
2022-12-31T15:05:22.182Z,3.80
2022-12-31T15:07:48.688Z,3.70
2022-12-31T15:10:48.093Z,3.80
2022-12-31T15:14:05.116Z,3.78
2022-12-31T15:17:00.267Z,3.90
2022-12-31T15:19:51.879Z,4.63
2022-12-31T15:22:29.672Z,5.28
2022-12-31T15:24:56.521Z,4.53
2022-12-31T15:27:33.477Z,4.15
2022-12-31T15:30:00.927Z,4.30
2022-12-31T15:32:47.717Z,4.75
2022-12-31T15:35:20.157Z,5.15
2022-12-31T15:38:00.035Z,5.10
2022-12-31T15:40:28.819Z,4.70
2022-12-31T15:43:02.467Z,4.75
2022-12-31T15:45:40.765Z,5.15
2022-12-31T15:48:15.200Z,4.50
2022-12-31T15:50:43.246Z,4.30
2022-12-31T15:53:29.723Z,4.93
2022-12-31T15:55:59.340Z,4.45
2022-12-31T15:58:37.198Z,4.55
2022-12-31T16:01:14.931Z,4.60
2022-12-31T16:04:06.927Z,4.70
2022-12-31T16:06:37.800Z,4.55
2022-12-31T16:09:08.546Z,3.90
2022-12-31T16:11:41.833Z,5.55
2022-12-31T16:14:22.340Z,4.63
2022-12-31T16:16:57.688Z,3.40
2022-12-31T16:19:34.665Z,4.45
2022-12-31T16:22:08.050Z,4.68
2022-12-31T16:24:48.983Z,5.30
2022-12-31T16:27:23.429Z,4.20
2022-12-31T16:29:58.611Z,4.97
2022-12-31T16:32:25.154Z,4.20
2022-12-31T16:34:54.748Z,4.93
2022-12-31T16:37:23.225Z,5.55
2022-12-31T16:39:58.679Z,5.60
2022-12-31T16:42:28.763Z,5.17
2022-12-31T16:44:57.453Z,5.82
2022-12-31T16:47:35.572Z,5.00
2022-12-31T16:50:24.128Z,5.78
2022-12-31T16:52:57.802Z,7.05
2022-12-31T16:55:27.474Z,6.90
2022-12-31T16:58:17.348Z,6.15
2022-12-31T17:00:44.707Z,6.03
2022-12-31T17:03:11.176Z,5.97
2022-12-31T17:06:07.286Z,7.03
2022-12-31T17:08:44.451Z,6.77
2022-12-31T17:11:31.404Z,6.90
2022-12-31T17:14:07.717Z,5.20
2022-12-31T17:16:59.692Z,5.03
2022-12-31T17:19:50.288Z,4.40
2022-12-31T17:22:46.196Z,4.70
2022-12-31T17:25:43.531Z,5.50
2022-12-31T17:28:37.736Z,5.60
2022-12-31T17:31:28.820Z,5.85
2022-12-31T17:34:13.417Z,6.05
2022-12-31T17:36:58.530Z,5.07
2022-12-31T17:39:26.887Z,5.55
2022-12-31T17:41:57.379Z,5.30
2022-12-31T17:44:28.663Z,5.53
2022-12-31T17:46:55.508Z,5.55
2022-12-31T17:49:31.434Z,4.90
2022-12-31T17:51:58.510Z,4.85
2022-12-31T17:54:25.019Z,4.80
2022-12-31T17:56:52.661Z,5.30
2022-12-31T17:59:24.387Z,5.90
2022-12-31T18:01:51.052Z,6.33
2022-12-31T18:04:19.244Z,6.10
2022-12-31T18:06:45.799Z,6.38
2022-12-31T18:09:12.332Z,5.28
2022-12-31T18:11:40.707Z,6.18
2022-12-31T18:14:07.328Z,4.80
2022-12-31T18:16:34.138Z,4.70
2022-12-31T18:19:02.100Z,5.07
2022-12-31T18:21:32.737Z,4.88
2022-12-31T18:26:26.669Z,5.30
2022-12-31T18:28:53.442Z,5.60
2022-12-31T18:31:22.105Z,4.90
2022-12-31T18:33:50.056Z,5.00
2022-12-31T18:36:18.182Z,4.60
2022-12-31T18:38:45.256Z,5.40
2022-12-31T18:41:23.192Z,5.28
2022-12-31T18:43:50.407Z,5.72
2022-12-31T18:46:19.628Z,5.75
2022-12-31T18:48:46.151Z,5.38
2022-12-31T18:51:31.083Z,5.73
2022-12-31T18:53:59.155Z,5.10
2022-12-31T18:56:26.014Z,5.72
2022-12-31T18:58:52.675Z,5.63
2022-12-31T19:01:29.182Z,5.35
2022-12-31T19:04:01.911Z,4.80
2022-12-31T19:06:29.640Z,4.75
2022-12-31T19:08:56.658Z,4.03
2022-12-31T19:11:23.672Z,5.03
2022-12-31T19:13:50.576Z,4.85
2022-12-31T19:16:17.975Z,5.20
2022-12-31T19:18:45.113Z,5.32
2022-12-31T19:21:17.739Z,5.50
2022-12-31T19:23:45.434Z,5.13
2022-12-31T19:26:17.665Z,3.85
2022-12-31T19:28:45.164Z,4.20
2022-12-31T19:31:11.981Z,4.72
2022-12-31T19:33:38.685Z,4.57
2022-12-31T19:36:07.396Z,5.68
2022-12-31T19:38:34.060Z,4.57
2022-12-31T19:41:01.413Z,5.00
2022-12-31T19:43:28.354Z,5.13
2022-12-31T19:45:54.837Z,4.88
2022-12-31T19:48:30.261Z,5.45
2022-12-31T19:50:59.232Z,4.63
2022-12-31T19:53:27.854Z,4.27
2022-12-31T19:55:54.457Z,4.35
2022-12-31T19:58:26.459Z,4.50
2022-12-31T20:01:02.292Z,5.00
2022-12-31T20:03:31.602Z,4.93
2022-12-31T20:06:03.362Z,4.57
2022-12-31T20:08:30.031Z,4.93
2022-12-31T20:10:58.820Z,5.30
2022-12-31T20:13:26.676Z,4.57
2022-12-31T20:15:53.829Z,5.00
2022-12-31T20:18:21.194Z,4.80
2022-12-31T20:20:55.133Z,4.70
2022-12-31T20:23:22.167Z,6.25
2022-12-31T20:26:01.713Z,5.15
2022-12-31T20:28:28.489Z,4.82
2022-12-31T20:30:55.101Z,4.17
2022-12-31T20:33:22.416Z,4.30
2022-12-31T20:35:48.845Z,3.95
2022-12-31T20:38:15.421Z,4.35
2022-12-31T20:40:46.689Z,4.13
2022-12-31T20:43:13.767Z,4.73
2022-12-31T20:45:41.654Z,4.45
2022-12-31T20:48:08.313Z,4.97
2022-12-31T20:50:35.004Z,4.82
2022-12-31T20:53:02.004Z,5.30
2022-12-31T20:55:30.679Z,4.60
2022-12-31T20:57:57.279Z,4.88
2022-12-31T21:00:23.722Z,5.40
2022-12-31T21:03:00.284Z,5.65
2022-12-31T21:05:33.470Z,5.10
2022-12-31T21:08:00.231Z,5.57
2022-12-31T21:10:26.677Z,5.00
2022-12-31T21:12:53.473Z,6.03
2022-12-31T21:15:21.067Z,6.38
2022-12-31T21:17:47.625Z,4.90
2022-12-31T21:20:14.067Z,5.37
2022-12-31T21:22:40.592Z,4.38
2022-12-31T21:25:07.515Z,5.15
2022-12-31T21:27:35.576Z,5.82
2022-12-31T21:30:18.213Z,4.40
2022-12-31T21:32:45.764Z,4.93
2022-12-31T21:35:42.291Z,4.47
2022-12-31T21:38:06.261Z,5.65
2022-12-31T21:40:32.944Z,4.93
2022-12-31T21:42:59.740Z,4.97
2022-12-31T21:45:26.432Z,5.80
2022-12-31T21:48:11.152Z,5.50
2022-12-31T21:50:37.563Z,5.75
2022-12-31T21:53:05.132Z,4.75
2022-12-31T21:55:50.179Z,5.30
2022-12-31T21:58:32.046Z,6.17
2022-12-31T22:01:18.506Z,6.30
2022-12-31T22:03:45.686Z,4.40
2022-12-31T22:06:16.178Z,5.10
2022-12-31T22:08:44.523Z,5.60
2022-12-31T22:11:13.218Z,5.20
2022-12-31T22:13:40.256Z,6.03
2022-12-31T22:16:07.732Z,5.80
2022-12-31T22:18:38.853Z,5.28
2022-12-31T22:21:18.414Z,7.18
2022-12-31T22:23:53.602Z,7.40
2022-12-31T22:26:23.457Z,5.38
2022-12-31T22:28:51.135Z,5.50
2022-12-31T22:31:24.361Z,5.60
2022-12-31T22:33:51.399Z,5.43
2022-12-31T22:36:20.783Z,5.87
2022-12-31T22:38:48.429Z,5.75
2022-12-31T22:41:19.787Z,5.05
2022-12-31T22:43:49.485Z,5.22
2022-12-31T22:46:21.521Z,5.60
2022-12-31T22:48:48.428Z,4.63
2022-12-31T22:51:15.851Z,5.18
2022-12-31T22:53:43.442Z,4.63
2022-12-31T22:56:12.530Z,5.57
2022-12-31T22:58:39.547Z,5.00
2022-12-31T23:01:19.072Z,5.93
2022-12-31T23:03:47.278Z,5.60
2022-12-31T23:06:14.274Z,5.50
2022-12-31T23:08:41.147Z,6.10
2022-12-31T23:11:09.716Z,5.80
2022-12-31T23:14:00.097Z,9.00
2022-12-31T23:16:47.471Z,9.63
2022-12-31T23:19:33.712Z,8.13
2022-12-31T23:22:19.055Z,7.35
2022-12-31T23:24:45.578Z,8.55
2022-12-31T23:27:12.337Z,9.30
2022-12-31T23:29:46.191Z,9.45
2022-12-31T23:32:17.552Z,10.27
2022-12-31T23:34:45.409Z,9.40
2022-12-31T23:37:13.867Z,10.10
2022-12-31T23:39:40.443Z,9.17
2022-12-31T23:42:06.970Z,10.40
2022-12-31T23:44:33.421Z,8.98
2022-12-31T23:46:59.945Z,9.77
2022-12-31T23:49:26.469Z,11.45
2022-12-31T23:51:52.962Z,11.73
2022-12-31T23:54:19.420Z,11.02
2022-12-31T23:56:45.875Z,13.48
2022-12-31T23:59:12.703Z,11.85
